createdAt,value
2023-04-20T00:00:21.933Z,445.00
2023-04-20T00:01:21.953Z,443.00
2023-04-20T00:02:22.079Z,442.00
2023-04-20T00:03:22.244Z,443.00
2023-04-20T00:04:22.032Z,444.00
2023-04-20T00:05:22.134Z,446.00
2023-04-20T00:06:22.112Z,443.00
2023-04-20T00:07:22.135Z,443.00
2023-04-20T00:08:22.142Z,443.00
2023-04-20T00:09:22.156Z,444.00
2023-04-20T00:10:22.188Z,443.00
2023-04-20T00:11:22.200Z,445.00
2023-04-20T00:12:22.232Z,445.00
2023-04-20T00:13:22.268Z,444.00
2023-04-20T00:14:22.277Z,443.00
2023-04-20T00:15:22.315Z,448.00
2023-04-20T00:16:22.314Z,444.00
2023-04-20T00:17:22.347Z,442.00
2023-04-20T00:18:22.354Z,444.00
2023-04-20T00:19:22.373Z,442.00
2023-04-20T00:20:22.392Z,443.00
2023-04-20T00:21:22.367Z,443.00
2023-04-20T00:22:22.407Z,446.00
2023-04-20T00:23:22.441Z,449.00
2023-04-20T00:24:22.457Z,450.00
2023-04-20T00:25:22.443Z,450.00
2023-04-20T00:26:22.516Z,449.00
2023-04-20T00:27:22.494Z,445.00
2023-04-20T00:28:22.525Z,445.00
2023-04-20T00:29:22.524Z,445.00
2023-04-20T00:30:22.593Z,445.00
2023-04-20T00:31:22.693Z,446.00
2023-04-20T00:32:22.662Z,446.00
2023-04-20T00:33:22.668Z,447.00
2023-04-20T00:34:22.629Z,445.00
2023-04-20T00:35:22.667Z,448.00
2023-04-20T00:36:22.708Z,449.00
2023-04-20T00:37:22.742Z,447.00
2023-04-20T00:38:22.702Z,449.00
2023-04-20T00:39:22.751Z,450.00
2023-04-20T00:40:22.775Z,449.00
2023-04-20T00:41:22.815Z,449.00
2023-04-20T00:42:22.815Z,448.00
2023-04-20T00:43:22.825Z,446.00
2023-04-20T00:44:22.830Z,447.00
2023-04-20T00:45:22.858Z,447.00
2023-04-20T00:46:22.889Z,443.00
2023-04-20T00:47:22.932Z,443.00
2023-04-20T00:48:22.915Z,440.00
2023-04-20T00:49:22.929Z,440.00
2023-04-20T00:50:22.959Z,441.00
2023-04-20T00:51:22.979Z,443.00
2023-04-20T00:52:22.996Z,445.00
2023-04-20T00:53:23.034Z,445.00
2023-04-20T00:54:23.005Z,443.00
2023-04-20T00:55:23.067Z,445.00
2023-04-20T00:56:23.067Z,444.00
2023-04-20T00:57:23.075Z,444.00
2023-04-20T00:58:23.136Z,444.00
2023-04-20T00:59:23.136Z,446.00
2023-04-20T01:00:23.153Z,445.00
2023-04-20T01:01:23.197Z,444.00
2023-04-20T01:02:23.281Z,439.00
2023-04-20T01:03:23.362Z,441.00
2023-04-20T01:04:23.371Z,442.00
2023-04-20T01:05:23.284Z,443.00
2023-04-20T01:06:23.289Z,442.00
2023-04-20T01:07:23.310Z,442.00
2023-04-20T01:08:23.358Z,443.00
2023-04-20T01:09:23.380Z,444.00
2023-04-20T01:10:23.394Z,443.00
2023-04-20T01:11:23.427Z,444.00
2023-04-20T01:12:23.440Z,443.00
2023-04-20T01:13:23.453Z,449.00
2023-04-20T01:14:23.506Z,451.00
2023-04-20T01:15:23.488Z,451.00
2023-04-20T01:16:23.536Z,450.00
2023-04-20T01:17:23.589Z,453.00
2023-04-20T01:18:23.576Z,451.00
2023-04-20T01:19:23.589Z,453.00
2023-04-20T01:20:23.666Z,452.00
2023-04-20T01:21:23.639Z,451.00
2023-04-20T01:22:23.676Z,445.00
2023-04-20T01:23:23.704Z,446.00
2023-04-20T01:24:23.723Z,442.00
2023-04-20T01:25:23.756Z,442.00
2023-04-20T01:26:23.773Z,439.00
2023-04-20T01:27:23.809Z,437.00
2023-04-20T01:28:23.819Z,437.00
2023-04-20T01:29:23.818Z,438.00
2023-04-20T01:30:23.903Z,439.00
2023-04-20T01:31:23.985Z,441.00
2023-04-20T01:32:23.998Z,442.00
2023-04-20T01:33:23.990Z,441.00
2023-04-20T01:34:24.000Z,442.00
2023-04-20T01:35:24.011Z,442.00
2023-04-20T01:36:24.044Z,442.00
2023-04-20T01:37:24.070Z,440.00
2023-04-20T01:38:24.081Z,439.00
2023-04-20T01:39:24.119Z,440.00
2023-04-20T01:40:24.133Z,441.00
2023-04-20T01:41:24.197Z,441.00
2023-04-20T01:42:24.188Z,443.00
2023-04-20T01:43:24.220Z,444.00
2023-04-20T01:44:24.219Z,445.00
2023-04-20T01:45:24.270Z,446.00
2023-04-20T01:46:24.304Z,446.00
2023-04-20T01:47:24.327Z,447.00
2023-04-20T01:48:24.359Z,444.00
2023-04-20T01:49:24.366Z,444.00
2023-04-20T01:50:24.391Z,443.00
2023-04-20T01:51:24.416Z,443.00
2023-04-20T01:52:24.430Z,442.00
2023-04-20T01:53:24.461Z,441.00
2023-04-20T01:54:24.491Z,439.00
2023-04-20T01:55:24.529Z,438.00
2023-04-20T01:56:24.542Z,438.00
2023-04-20T01:57:24.584Z,437.00
2023-04-20T01:58:24.609Z,438.00
2023-04-20T01:59:24.640Z,441.00
2023-04-20T02:00:24.689Z,441.00
2023-04-20T02:01:24.738Z,441.00
2023-04-20T02:02:24.845Z,443.00
2023-04-20T02:03:24.902Z,444.00
2023-04-20T02:04:24.809Z,445.00
2023-04-20T02:05:24.807Z,446.00
2023-04-20T02:06:24.836Z,448.00
2023-04-20T02:07:24.854Z,449.00
2023-04-20T02:08:24.945Z,448.00
2023-04-20T02:09:24.922Z,446.00
2023-04-20T02:10:24.965Z,445.00
2023-04-20T02:11:24.961Z,447.00
2023-04-20T02:12:24.977Z,447.00
2023-04-20T02:13:25.012Z,445.00
2023-04-20T02:14:25.036Z,445.00
2023-04-20T02:15:25.046Z,443.00
2023-04-20T02:16:25.172Z,443.00
2023-04-20T02:17:25.164Z,445.00
2023-04-20T02:18:25.157Z,447.00
2023-04-20T02:19:25.190Z,444.00
2023-04-20T02:20:25.225Z,444.00
2023-04-20T02:21:25.253Z,444.00
2023-04-20T02:22:25.267Z,444.00
2023-04-20T02:23:25.301Z,442.00
2023-04-20T02:24:25.334Z,443.00
2023-04-20T02:25:25.357Z,443.00
2023-04-20T02:26:25.369Z,444.00
2023-04-20T02:27:25.395Z,445.00
2023-04-20T02:28:25.451Z,445.00
2023-04-20T02:29:25.467Z,444.00
2023-04-20T02:30:25.475Z,443.00
2023-04-20T02:31:25.539Z,442.00
2023-04-20T02:32:25.533Z,438.00
2023-04-20T02:33:25.580Z,439.00
2023-04-20T02:34:25.590Z,440.00
2023-04-20T02:35:25.621Z,440.00
2023-04-20T02:36:25.646Z,440.00
2023-04-20T02:37:25.649Z,441.00
2023-04-20T02:38:25.705Z,444.00
2023-04-20T02:39:25.690Z,443.00
2023-04-20T02:40:25.737Z,445.00
2023-04-20T02:41:25.746Z,444.00
2023-04-20T02:42:25.795Z,442.00
2023-04-20T02:43:25.805Z,441.00
2023-04-20T02:44:25.838Z,439.00
2023-04-20T02:45:25.959Z,442.00
2023-04-20T02:46:25.913Z,444.00
2023-04-20T02:47:25.960Z,446.00
2023-04-20T02:48:25.953Z,447.00
2023-04-20T02:49:25.979Z,447.00
2023-04-20T02:50:26.027Z,446.00
2023-04-20T02:51:26.057Z,447.00
2023-04-20T02:52:26.083Z,447.00
2023-04-20T02:53:26.113Z,447.00
2023-04-20T02:54:26.112Z,449.00
2023-04-20T02:55:26.160Z,447.00
2023-04-20T02:56:26.184Z,445.00
2023-04-20T02:57:26.239Z,446.00
2023-04-20T02:58:26.279Z,448.00
2023-04-20T02:59:26.268Z,443.00
2023-04-20T03:00:26.312Z,443.00
2023-04-20T03:01:26.390Z,444.00
2023-04-20T03:02:26.575Z,444.00
2023-04-20T03:03:26.654Z,444.00
2023-04-20T03:04:26.536Z,446.00
2023-04-20T03:05:26.496Z,444.00
2023-04-20T03:06:26.519Z,446.00
2023-04-20T03:07:26.522Z,445.00
2023-04-20T03:08:26.596Z,448.00
2023-04-20T03:09:26.616Z,451.00
2023-04-20T03:10:26.634Z,450.00
2023-04-20T03:11:26.667Z,451.00
2023-04-20T03:12:26.714Z,450.00
2023-04-20T03:13:26.714Z,450.00
2023-04-20T03:14:27.292Z,449.00
2023-04-20T03:15:26.777Z,449.00
2023-04-20T03:16:26.845Z,450.00
2023-04-20T03:17:26.878Z,453.00
2023-04-20T03:18:26.844Z,455.00
2023-04-20T03:19:26.850Z,455.00
2023-04-20T03:20:26.887Z,454.00
2023-04-20T03:21:26.906Z,456.00
2023-04-20T03:22:26.940Z,455.00
2023-04-20T03:23:27.020Z,456.00
2023-04-20T03:24:27.003Z,455.00
2023-04-20T03:25:27.046Z,454.00
2023-04-20T03:26:27.050Z,452.00
2023-04-20T03:27:27.205Z,451.00
2023-04-20T03:28:27.139Z,452.00
2023-04-20T03:29:27.131Z,452.00
2023-04-20T03:30:27.213Z,454.00
2023-04-20T03:31:27.281Z,452.00
2023-04-20T03:32:27.271Z,453.00
2023-04-20T03:33:27.299Z,451.00
2023-04-20T03:34:27.284Z,448.00
2023-04-20T03:35:27.330Z,448.00
2023-04-20T03:36:27.376Z,446.00
2023-04-20T03:37:27.406Z,446.00
2023-04-20T03:38:27.442Z,448.00
2023-04-20T03:39:27.458Z,449.00
2023-04-20T03:40:27.506Z,448.00
2023-04-20T03:41:27.523Z,449.00
2023-04-20T03:42:27.534Z,447.00
2023-04-20T03:43:27.573Z,443.00
2023-04-20T03:44:27.626Z,444.00
2023-04-20T03:45:27.670Z,444.00
2023-04-20T03:46:27.716Z,445.00
2023-04-20T03:47:27.788Z,443.00
2023-04-20T03:48:27.754Z,443.00
2023-04-20T03:49:27.755Z,444.00
2023-04-20T03:50:27.776Z,443.00
2023-04-20T03:51:27.834Z,442.00
2023-04-20T03:52:27.837Z,442.00
2023-04-20T03:53:27.887Z,445.00
2023-04-20T03:54:27.942Z,447.00
2023-04-20T03:55:27.965Z,448.00
2023-04-20T03:56:27.992Z,446.00
2023-04-20T03:57:28.039Z,445.00
2023-04-20T03:58:28.073Z,446.00
2023-04-20T03:59:28.094Z,449.00
2023-04-20T04:00:28.147Z,447.00
2023-04-20T04:01:28.152Z,446.00
2023-04-20T04:02:28.325Z,447.00
2023-04-20T04:03:28.412Z,446.00
2023-04-20T04:04:28.475Z,444.00
2023-04-20T04:05:28.409Z,445.00
2023-04-20T04:06:28.338Z,446.00
2023-04-20T04:07:28.339Z,445.00
2023-04-20T04:08:28.430Z,445.00
2023-04-20T04:09:28.400Z,445.00
2023-04-20T04:10:28.456Z,446.00
2023-04-20T04:11:28.495Z,447.00
2023-04-20T04:12:28.557Z,448.00
2023-04-20T04:13:28.610Z,448.00
2023-04-20T04:14:28.624Z,447.00
2023-04-20T04:15:28.646Z,447.00
2023-04-20T04:16:28.679Z,447.00
2023-04-20T04:17:28.725Z,447.00
2023-04-20T04:18:28.814Z,446.00
2023-04-20T04:19:28.773Z,444.00
2023-04-20T04:20:28.845Z,447.00
2023-04-20T04:21:28.862Z,445.00
2023-04-20T04:22:30.537Z,445.00
2023-04-20T04:23:28.960Z,444.00
2023-04-20T04:24:29.031Z,443.00
2023-04-20T04:25:29.006Z,445.00
2023-04-20T04:26:29.032Z,445.00
2023-04-20T04:27:29.078Z,443.00
2023-04-20T04:28:29.145Z,443.00
2023-04-20T04:29:29.158Z,443.00
2023-04-20T04:30:29.187Z,441.00
2023-04-20T04:31:29.287Z,439.00
2023-04-20T04:32:29.308Z,441.00
2023-04-20T04:33:29.316Z,440.00
2023-04-20T04:34:29.338Z,440.00
2023-04-20T04:35:29.436Z,439.00
2023-04-20T04:36:29.485Z,439.00
2023-04-20T04:37:29.490Z,440.00
2023-04-20T04:38:29.550Z,440.00
2023-04-20T04:39:29.589Z,438.00
2023-04-20T04:40:29.632Z,439.00
2023-04-20T04:41:29.794Z,439.00
2023-04-20T04:42:29.721Z,437.00
2023-04-20T04:43:29.760Z,437.00
2023-04-20T04:44:29.802Z,439.00
2023-04-20T04:45:29.832Z,441.00
2023-04-20T04:46:29.933Z,442.00
2023-04-20T04:47:30.005Z,444.00
2023-04-20T04:48:29.969Z,445.00
2023-04-20T04:49:29.998Z,446.00
2023-04-20T04:50:30.042Z,445.00
2023-04-20T04:51:30.081Z,443.00
2023-04-20T04:52:30.116Z,442.00
2023-04-20T04:53:30.181Z,441.00
2023-04-20T04:54:30.224Z,441.00
2023-04-20T04:55:30.261Z,441.00
2023-04-20T04:56:30.310Z,439.00
2023-04-20T04:57:30.357Z,440.00
2023-04-20T04:58:30.385Z,441.00
2023-04-20T04:59:30.445Z,441.00
2023-04-20T05:00:30.451Z,443.00
2023-04-20T05:01:30.489Z,443.00
2023-04-20T05:02:30.803Z,443.00
2023-04-20T05:03:30.754Z,441.00
2023-04-20T05:04:30.793Z,441.00
2023-04-20T05:05:30.679Z,443.00
2023-04-20T05:06:30.710Z,440.00
2023-04-20T05:07:30.731Z,441.00
2023-04-20T05:08:30.759Z,442.00
2023-04-20T05:09:30.824Z,440.00
2023-04-20T05:10:30.847Z,440.00
2023-04-20T05:11:30.850Z,438.00
2023-04-20T05:12:30.884Z,440.00
2023-04-20T05:13:30.936Z,441.00
2023-04-20T05:14:30.968Z,442.00
2023-04-20T05:15:31.028Z,444.00
2023-04-20T05:16:31.109Z,446.00
2023-04-20T05:17:31.087Z,446.00
2023-04-20T05:18:31.150Z,448.00
2023-04-20T05:19:31.246Z,448.00
2023-04-20T05:20:31.200Z,447.00
2023-04-20T05:21:31.199Z,447.00
2023-04-20T05:22:31.265Z,450.00
2023-04-20T05:23:31.295Z,451.00
2023-04-20T05:24:31.272Z,453.00
2023-04-20T05:25:31.318Z,452.00
2023-04-20T05:26:31.363Z,451.00
2023-04-20T05:27:31.410Z,453.00
2023-04-20T05:28:31.442Z,452.00
2023-04-20T05:29:31.464Z,454.00
2023-04-20T05:30:31.522Z,455.00
2023-04-20T05:31:31.520Z,454.00
2023-04-20T05:32:31.587Z,456.00
2023-04-20T05:33:31.590Z,458.00
2023-04-20T05:34:31.590Z,456.00
2023-04-20T05:35:31.676Z,455.00
2023-04-20T05:36:31.611Z,455.00
2023-04-20T05:37:31.678Z,456.00
2023-04-20T05:38:31.840Z,456.00
2023-04-20T05:39:31.739Z,459.00
2023-04-20T05:40:34.364Z,475.00
2023-04-20T05:41:31.936Z,606.00
2023-04-20T05:42:32.052Z,590.00
2023-04-20T05:43:31.999Z,582.00
2023-04-20T05:44:32.032Z,599.00
2023-04-20T05:45:32.163Z,613.00
2023-04-20T05:46:32.041Z,687.00
2023-04-20T05:47:32.137Z,695.00
2023-04-20T05:48:32.072Z,705.00
2023-04-20T05:49:32.058Z,702.00
2023-04-20T05:50:32.076Z,718.00
2023-04-20T05:51:32.050Z,715.00
2023-04-20T05:52:32.019Z,722.00
2023-04-20T05:53:32.332Z,742.00
2023-04-20T05:54:32.052Z,761.00
2023-04-20T05:55:32.121Z,777.00
2023-04-20T05:56:32.104Z,840.00
2023-04-20T05:57:32.217Z,860.00
2023-04-20T05:58:32.272Z,866.00
2023-04-20T05:59:32.360Z,878.00
2023-04-20T06:00:32.384Z,883.00
2023-04-20T06:01:32.440Z,891.00
2023-04-20T06:02:32.619Z,908.00
2023-04-20T06:03:32.842Z,918.00
2023-04-20T06:04:32.779Z,940.00
2023-04-20T06:05:32.781Z,982.00
2023-04-20T06:06:32.729Z,997.00
2023-04-20T06:07:32.783Z,1008.00
2023-04-20T06:08:32.844Z,1022.00
2023-04-20T06:09:32.872Z,1038.00
2023-04-20T06:10:32.933Z,1062.00
2023-04-20T06:11:32.988Z,1073.00
2023-04-20T06:12:33.043Z,1082.00
2023-04-20T06:13:33.097Z,1091.00
2023-04-20T06:14:33.155Z,1105.00
2023-04-20T06:15:33.190Z,1123.00
2023-04-20T06:16:33.206Z,1136.00
2023-04-20T06:17:33.341Z,1170.00
2023-04-20T06:18:33.281Z,1178.00
2023-04-20T06:19:33.312Z,1194.00
2023-04-20T06:20:33.341Z,1207.00
2023-04-20T06:21:33.377Z,1219.00
2023-04-20T06:22:33.428Z,1237.00
2023-04-20T06:23:33.545Z,1265.00
2023-04-20T06:24:33.470Z,1276.00
2023-04-20T06:25:33.490Z,1147.00
2023-04-20T06:26:33.508Z,1126.00
2023-04-20T06:27:33.561Z,1059.00
2023-04-20T06:28:33.638Z,982.00
2023-04-20T06:29:33.687Z,998.00
2023-04-20T06:30:33.670Z,1082.00
2023-04-20T06:31:33.829Z,1099.00
2023-04-20T06:32:33.858Z,1135.00
2023-04-20T06:33:33.879Z,1192.00
2023-04-20T06:34:33.829Z,1213.00
2023-04-20T06:35:33.900Z,1238.00
2023-04-20T06:36:33.910Z,1262.00
2023-04-20T06:37:33.960Z,1279.00
2023-04-20T06:38:33.982Z,1310.00
2023-04-20T06:39:34.068Z,1321.00
2023-04-20T06:40:34.053Z,1341.00
2023-04-20T06:41:34.115Z,1374.00
2023-04-20T06:42:34.136Z,1393.00
2023-04-20T06:43:34.154Z,1413.00
2023-04-20T06:44:34.122Z,1424.00
2023-04-20T06:45:34.325Z,1283.00
2023-04-20T06:46:34.251Z,1232.00
2023-04-20T06:47:34.283Z,1254.00
2023-04-20T06:48:34.512Z,1275.00
2023-04-20T06:49:34.245Z,1329.00
2023-04-20T06:50:34.369Z,1353.00
2023-04-20T06:51:34.303Z,1514.00
2023-04-20T06:52:34.356Z,1506.00
2023-04-20T06:53:34.414Z,1512.00
2023-04-20T06:54:34.397Z,1517.00
2023-04-20T06:55:34.406Z,1532.00
2023-04-20T06:56:35.771Z,1567.00
2023-04-20T06:57:34.494Z,1569.00
2023-04-20T06:58:34.603Z,1596.00
2023-04-20T06:59:34.611Z,1632.00
2023-04-20T07:00:34.623Z,1662.00
2023-04-20T07:01:34.654Z,1687.00
2023-04-20T07:02:34.655Z,1710.00
2023-04-20T07:03:35.016Z,1736.00
2023-04-20T07:04:34.693Z,1777.00
2023-04-20T07:05:34.635Z,1795.00
2023-04-20T07:06:34.616Z,1805.00
2023-04-20T07:07:34.602Z,1884.00
2023-04-20T07:08:34.683Z,1931.00
2023-04-20T07:09:34.675Z,1938.00
2023-04-20T07:10:34.727Z,1939.00
2023-04-20T07:11:34.668Z,1947.00
2023-04-20T07:12:34.688Z,1961.00
2023-04-20T07:13:34.724Z,1979.00
2023-04-20T07:14:34.796Z,2007.00
2023-04-20T07:15:34.813Z,2024.00
2023-04-20T07:16:34.974Z,2034.00
2023-04-20T07:17:34.927Z,2056.00
2023-04-20T07:18:35.745Z,2109.00
2023-04-20T07:19:35.031Z,2135.00
2023-04-20T07:20:35.070Z,2145.00
2023-04-20T07:21:35.163Z,2160.00
2023-04-20T07:22:35.228Z,2166.00
2023-04-20T07:23:35.352Z,2167.00
2023-04-20T07:24:35.329Z,2211.00
2023-04-20T07:25:35.419Z,2228.00
2023-04-20T07:26:35.486Z,2236.00
2023-04-20T07:27:35.525Z,2247.00
2023-04-20T07:28:35.582Z,2272.00
2023-04-20T07:29:35.635Z,2355.00
2023-04-20T07:30:35.712Z,2359.00
2023-04-20T07:31:35.778Z,2363.00
2023-04-20T07:32:35.825Z,2369.00
2023-04-20T07:33:35.907Z,2438.00
2023-04-20T07:34:35.925Z,2459.00
2023-04-20T07:35:36.014Z,2473.00
2023-04-20T07:36:36.045Z,2474.00
2023-04-20T07:37:36.100Z,2485.00
2023-04-20T07:38:36.421Z,2499.00
2023-04-20T07:39:36.236Z,2571.00
2023-04-20T07:40:36.248Z,2633.00
2023-04-20T07:41:36.302Z,2646.00
2023-04-20T07:42:36.363Z,2647.00
2023-04-20T07:43:36.400Z,2610.00
2023-04-20T07:44:36.447Z,2596.00
2023-04-20T07:45:36.492Z,2592.00
2023-04-20T07:46:36.549Z,2491.00
2023-04-20T07:47:36.623Z,2288.00
2023-04-20T07:48:36.646Z,1687.00
2023-04-20T07:49:37.378Z,1390.00
2023-04-20T07:50:36.672Z,1182.00
2023-04-20T07:51:36.696Z,915.00
2023-04-20T07:52:36.724Z,864.00
2023-04-20T07:53:36.778Z,827.00
2023-04-20T07:54:36.910Z,829.00
2023-04-20T07:55:36.913Z,897.00
2023-04-20T07:56:36.963Z,1118.00
2023-04-20T07:57:37.007Z,1157.00
2023-04-20T07:58:37.029Z,1175.00
2023-04-20T07:59:37.525Z,1236.00
2023-04-20T08:00:37.142Z,1315.00
2023-04-20T08:01:37.105Z,1310.00
2023-04-20T08:02:37.254Z,1312.00
2023-04-20T08:03:37.267Z,1319.00
2023-04-20T08:04:37.435Z,1385.00
2023-04-20T08:05:37.195Z,1403.00
2023-04-20T08:06:37.203Z,1427.00
2023-04-20T08:07:37.269Z,1447.00
2023-04-20T08:08:37.329Z,1470.00
2023-04-20T08:09:37.359Z,1491.00
2023-04-20T08:10:37.459Z,1505.00
2023-04-20T08:11:37.496Z,1529.00
2023-04-20T08:12:37.522Z,1573.00
2023-04-20T08:13:37.555Z,1595.00
2023-04-20T08:14:37.623Z,1617.00
2023-04-20T08:15:37.926Z,1663.00
2023-04-20T08:16:37.703Z,1685.00
2023-04-20T08:17:37.752Z,1727.00
2023-04-20T08:18:37.774Z,1741.00
2023-04-20T08:19:37.809Z,1759.00
2023-04-20T08:20:37.835Z,1778.00
2023-04-20T08:21:37.893Z,1811.00
2023-04-20T08:22:37.907Z,1827.00
2023-04-20T08:23:37.953Z,1731.00
2023-04-20T08:24:37.984Z,1779.00
2023-04-20T08:25:38.030Z,1689.00
2023-04-20T08:26:38.123Z,943.00
2023-04-20T08:27:38.130Z,1195.00
2023-04-20T08:28:38.148Z,841.00
2023-04-20T08:29:38.456Z,880.00
2023-04-20T08:30:38.139Z,1258.00
2023-04-20T08:31:38.276Z,1038.00
2023-04-20T08:32:38.298Z,906.00
2023-04-20T08:33:38.242Z,880.00
2023-04-20T08:34:38.607Z,939.00
2023-04-20T08:35:38.240Z,902.00
2023-04-20T08:36:38.430Z,1165.00
2023-04-20T08:37:38.316Z,1204.00
2023-04-20T08:38:38.320Z,1203.00
2023-04-20T08:39:38.441Z,1219.00
2023-04-20T08:40:38.331Z,1239.00
2023-04-20T08:41:38.396Z,1252.00
2023-04-20T08:42:38.371Z,1308.00
2023-04-20T08:43:38.412Z,1317.00
2023-04-20T08:44:38.453Z,1345.00
2023-04-20T08:45:38.502Z,1358.00
2023-04-20T08:46:38.837Z,1369.00
2023-04-20T08:47:38.677Z,1386.00
2023-04-20T08:48:38.690Z,1483.00
2023-04-20T08:49:38.924Z,1485.00
2023-04-20T08:50:38.814Z,1500.00
2023-04-20T08:51:38.863Z,1510.00
2023-04-20T08:52:38.923Z,1612.00
2023-04-20T08:53:38.940Z,1610.00
2023-04-20T08:54:45.885Z,1624.00
2023-04-20T08:55:39.965Z,1630.00
2023-04-20T08:56:38.948Z,1641.00
2023-04-20T08:57:38.972Z,1646.00
2023-04-20T08:58:39.014Z,1651.00
2023-04-20T08:59:38.953Z,1673.00
2023-04-20T09:00:38.951Z,1704.00
2023-04-20T09:01:38.962Z,1761.00
2023-04-20T09:02:39.057Z,1781.00
2023-04-20T09:03:39.036Z,1784.00
2023-04-20T09:04:38.944Z,1803.00
2023-04-20T09:05:38.850Z,1818.00
2023-04-20T09:06:38.836Z,1846.00
2023-04-20T09:07:38.897Z,1880.00
2023-04-20T09:08:38.933Z,1895.00
2023-04-20T09:09:38.860Z,1926.00
2023-04-20T09:10:38.898Z,1973.00
2023-04-20T09:11:38.922Z,1989.00
2023-04-20T09:12:38.948Z,1999.00
2023-04-20T09:13:38.974Z,2008.00
2023-04-20T09:14:38.961Z,2061.00
2023-04-20T09:15:39.014Z,2066.00
2023-04-20T09:16:39.024Z,2079.00
2023-04-20T09:17:39.055Z,2096.00
2023-04-20T09:18:39.041Z,2113.00
2023-04-20T09:19:39.093Z,2150.00
2023-04-20T09:20:39.101Z,2184.00
2023-04-20T09:21:39.103Z,2200.00
2023-04-20T09:22:39.197Z,2215.00
2023-04-20T09:23:39.157Z,2291.00
2023-04-20T09:24:39.159Z,2301.00
2023-04-20T09:25:39.196Z,2309.00
2023-04-20T09:26:39.182Z,2328.00
2023-04-20T09:27:39.251Z,2351.00
2023-04-20T09:28:39.277Z,2366.00
2023-04-20T09:29:39.258Z,2372.00
2023-04-20T09:30:39.251Z,2422.00
2023-04-20T09:31:39.360Z,2433.00
2023-04-20T09:32:39.378Z,2443.00
2023-04-20T09:33:39.330Z,2460.00
2023-04-20T09:34:39.387Z,2468.00
2023-04-20T09:35:39.321Z,2483.00
2023-04-20T09:36:39.331Z,2511.00
2023-04-20T09:37:39.356Z,2539.00
2023-04-20T09:38:39.379Z,2568.00
2023-04-20T09:39:39.402Z,2598.00
2023-04-20T09:40:39.371Z,2627.00
2023-04-20T09:41:39.407Z,2654.00
2023-04-20T09:42:39.483Z,2725.00
2023-04-20T09:43:39.367Z,2765.00
2023-04-20T09:44:39.454Z,2781.00
2023-04-20T09:45:39.473Z,2763.00
2023-04-20T09:46:39.437Z,2736.00
2023-04-20T09:47:39.459Z,2741.00
2023-04-20T09:48:39.409Z,2712.00
2023-04-20T09:49:39.410Z,2706.00
2023-04-20T09:50:48.373Z,2701.00
2023-04-20T09:51:40.426Z,2688.00
2023-04-20T09:52:39.402Z,2685.00
2023-04-20T09:53:39.385Z,2666.00
2023-04-20T09:54:39.408Z,2627.00
2023-04-20T09:55:39.450Z,2561.00
2023-04-20T09:56:39.395Z,2529.00
2023-04-20T09:57:39.416Z,2440.00
2023-04-20T09:58:39.358Z,2407.00
2023-04-20T09:59:39.387Z,2365.00
2023-04-20T10:00:39.360Z,2332.00
2023-04-20T10:01:39.374Z,2280.00
2023-04-20T10:02:39.493Z,2212.00
2023-04-20T10:03:39.428Z,2201.00
2023-04-20T10:04:39.409Z,2129.00
2023-04-20T10:05:39.305Z,2086.00
2023-04-20T10:06:39.299Z,2054.00
2023-04-20T10:07:39.340Z,2028.00
2023-04-20T10:08:39.275Z,1915.00
2023-04-20T10:09:39.275Z,1950.00
2023-04-20T10:10:39.337Z,1951.00
2023-04-20T10:11:49.595Z,1950.00
2023-04-20T10:12:40.955Z,1926.00
2023-04-20T10:13:39.319Z,1894.00
2023-04-20T10:14:39.339Z,1879.00
2023-04-20T10:15:39.325Z,1836.00
2023-04-20T10:16:39.345Z,1814.00
2023-04-20T10:17:39.361Z,1797.00
2023-04-20T10:18:39.350Z,1789.00
2023-04-20T10:19:39.355Z,1775.00
2023-04-20T10:20:39.297Z,1760.00
2023-04-20T10:21:39.273Z,1746.00
2023-04-20T10:22:39.272Z,1737.00
2023-04-20T10:23:39.280Z,1725.00
2023-04-20T10:24:39.262Z,1689.00
2023-04-20T10:25:39.233Z,1661.00
2023-04-20T10:26:39.268Z,1643.00
2023-04-20T10:27:39.241Z,1624.00
2023-04-20T10:28:39.261Z,1610.00
2023-04-20T10:29:39.221Z,1603.00
2023-04-20T10:30:39.247Z,1599.00
2023-04-20T10:31:39.358Z,1598.00
2023-04-20T10:32:39.284Z,1597.00
2023-04-20T10:33:39.661Z,1599.00
2023-04-20T10:34:39.275Z,1606.00
2023-04-20T10:35:39.279Z,1609.00
2023-04-20T10:36:39.342Z,1622.00
2023-04-20T10:37:39.327Z,1677.00
2023-04-20T10:38:39.312Z,1760.00
2023-04-20T10:39:39.510Z,1746.00
2023-04-20T10:40:39.383Z,1741.00
2023-04-20T10:41:39.373Z,1809.00
2023-04-20T10:42:39.364Z,1837.00
2023-04-20T10:43:39.420Z,1857.00
2023-04-20T10:44:39.483Z,2239.00
2023-04-20T10:45:39.421Z,1971.00
2023-04-20T10:46:39.549Z,1961.00
2023-04-20T10:47:39.451Z,1969.00
2023-04-20T10:48:39.583Z,1983.00
2023-04-20T10:49:39.426Z,2037.00
2023-04-20T10:50:39.430Z,2046.00
2023-04-20T10:51:39.423Z,2064.00
2023-04-20T10:52:39.408Z,2075.00
2023-04-20T10:53:39.477Z,2098.00
2023-04-20T10:54:39.436Z,2181.00
2023-04-20T10:55:39.447Z,2183.00
2023-04-20T10:56:39.460Z,2194.00
2023-04-20T10:57:39.516Z,2216.00
2023-04-20T10:58:39.633Z,2240.00
2023-04-20T10:59:39.701Z,2257.00
2023-04-20T11:00:39.728Z,2280.00
2023-04-20T11:01:39.799Z,2288.00
2023-04-20T11:02:39.892Z,2315.00
2023-04-20T11:03:40.057Z,2329.00
2023-04-20T11:04:40.022Z,2345.00
2023-04-20T11:05:40.058Z,2367.00
2023-04-20T11:06:40.097Z,2380.00
2023-04-20T11:07:40.229Z,2440.00
2023-04-20T11:08:40.219Z,2457.00
2023-04-20T11:09:40.290Z,2466.00
2023-04-20T11:10:40.297Z,2474.00
2023-04-20T11:11:40.415Z,2501.00
2023-04-20T11:12:40.479Z,2533.00
2023-04-20T11:13:40.482Z,2539.00
2023-04-20T11:14:40.545Z,2554.00
2023-04-20T11:15:40.577Z,2586.00
2023-04-20T11:16:50.889Z,2658.00
2023-04-20T11:17:41.678Z,2693.00
2023-04-20T11:18:40.651Z,2727.00
2023-04-20T11:19:40.639Z,2742.00
2023-04-20T11:20:40.629Z,2760.00
2023-04-20T11:21:40.619Z,2768.00
2023-04-20T11:22:40.728Z,2788.00
2023-04-20T11:23:40.571Z,2787.00
2023-04-20T11:24:40.576Z,2818.00
2023-04-20T11:25:40.542Z,2844.00
2023-04-20T11:26:40.584Z,2836.00
2023-04-20T11:27:40.583Z,2827.00
2023-04-20T11:28:40.599Z,2791.00
2023-04-20T11:29:41.048Z,2718.00
2023-04-20T11:30:40.793Z,2619.00
2023-04-20T11:31:40.872Z,2602.00
2023-04-20T11:32:40.950Z,2473.00
2023-04-20T11:33:41.027Z,2423.00
2023-04-20T11:34:41.008Z,2399.00
2023-04-20T11:35:40.990Z,2326.00
2023-04-20T11:36:41.080Z,2287.00
2023-04-20T11:37:41.151Z,2243.00
2023-04-20T11:38:41.173Z,2168.00
2023-04-20T11:39:41.254Z,2083.00
2023-04-20T11:40:41.316Z,2071.00
2023-04-20T11:41:41.383Z,2059.00
2023-04-20T11:42:41.403Z,2020.00
2023-04-20T11:43:41.448Z,1977.00
2023-04-20T11:44:41.511Z,1964.00
2023-04-20T11:45:41.538Z,1954.00
2023-04-20T11:46:41.565Z,1946.00
2023-04-20T11:47:41.677Z,1936.00
2023-04-20T11:48:41.613Z,1926.00
2023-04-20T11:49:41.637Z,1907.00
2023-04-20T11:50:42.675Z,1902.00
2023-04-20T11:51:41.707Z,1896.00
2023-04-20T11:52:41.767Z,1885.00
2023-04-20T11:53:41.779Z,1875.00
2023-04-20T11:54:41.874Z,1869.00
2023-04-20T11:55:41.912Z,1864.00
2023-04-20T11:56:42.460Z,1859.00
2023-04-20T11:57:42.019Z,1856.00
2023-04-20T11:58:44.044Z,1848.00
2023-04-20T11:59:42.090Z,1847.00
2023-04-20T12:00:42.063Z,1847.00
2023-04-20T12:01:42.110Z,1845.00
2023-04-20T12:02:42.288Z,1845.00
2023-04-20T12:03:43.469Z,1845.00
2023-04-20T12:04:42.466Z,1840.00
2023-04-20T12:05:42.153Z,1834.00
2023-04-20T12:06:42.195Z,1829.00
2023-04-20T12:07:42.135Z,1823.00
2023-04-20T12:08:42.135Z,1822.00
2023-04-20T12:09:42.088Z,1825.00
2023-04-20T12:10:42.103Z,1825.00
2023-04-20T12:11:42.156Z,1823.00
2023-04-20T12:12:42.084Z,1820.00
2023-04-20T12:13:42.112Z,1816.00
2023-04-20T12:14:42.090Z,1813.00
2023-04-20T12:15:42.215Z,1807.00
2023-04-20T12:16:42.032Z,1803.00
2023-04-20T12:17:42.135Z,1803.00